Time;durP1;ratioP1;P1;durP2;ratioP2;P2;SDS_P1;SDS_P2;PMS_P1;PMS_P2;Temp;Humidity;BMP_temperature;BMP_pressure;BME280_temperature;BME280_humidity;BME280_pressure;Samples;Min_cycle;Max_cycle;Signal;HPM_P1;HPM_P2
2021/09/13 00:00:34;;;;;;;2.05;1.10;;;21.90;79.70;;;;;;4191366;28;20052;-62
2021/09/13 00:02:57;;;;;;;1.92;0.80;;;21.90;79.70;;;;;;4192411;28;20048;-62
2021/09/13 00:05:19;;;;;;;3.15;1.20;;;21.80;79.80;;;;;;4191902;28;20123;-62
2021/09/13 00:07:42;;;;;;;1.95;1.15;;;21.80;79.80;;;;;;4192497;28;20049;-62
2021/09/13 00:10:05;;;;;;;3.25;1.20;;;21.90;79.90;;;;;;4192588;28;20048;-62
2021/09/13 00:12:28;;;;;;;0.80;0.73;;;21.90;80.00;;;;;;4192080;28;20558;-62
2021/09/13 00:14:51;;;;;;;2.95;1.10;;;21.80;79.80;;;;;;4192378;28;20059;-62
2021/09/13 00:17:13;;;;;;;1.13;0.88;;;21.80;80.00;;;;;;4191632;28;20045;-62
2021/09/13 00:19:36;;;;;;;1.83;1.05;;;21.80;80.00;;;;;;4192207;28;20053;-62
2021/09/13 00:21:58;;;;;;;1.23;0.80;;;21.80;80.00;;;;;;4175680;28;20056;-62
2021/09/13 00:24:20;;;;;;;2.80;1.00;;;21.90;80.10;;;;;;4175680;28;20041;-62
2021/09/13 00:26:43;;;;;;;1.63;1.00;;;21.80;80.10;;;;;;4168120;28;20392;-63
2021/09/13 00:29:07;;;;;;;2.33;1.00;;;21.80;80.10;;;;;;4174892;28;20052;-62
2021/09/13 00:31:29;;;;;;;2.40;1.02;;;21.80;80.10;;;;;;4176936;28;20491;-63
2021/09/13 00:33:51;;;;;;;2.05;0.85;;;21.80;80.20;;;;;;4190465;28;20162;-63
2021/09/13 00:36:13;;;;;;;1.92;0.82;;;21.80;80.20;;;;;;4192203;28;20498;-62
2021/09/13 00:38:37;;;;;;;2.70;1.08;;;21.80;81.10;;;;;;4190695;28;20056;-61
2021/09/13 00:41:02;;;;;;;1.17;1.00;;;21.80;80.30;;;;;;4183942;28;20053;-62
2021/09/13 00:43:25;;;;;;;3.20;1.20;;;21.80;80.30;;;;;;4182684;28;20131;-62
2021/09/13 00:45:48;;;;;;;2.63;1.15;;;21.80;80.40;;;;;;4191869;28;20139;-61
2021/09/13 00:48:11;;;;;;;1.98;1.00;;;21.80;80.40;;;;;;4191796;28;20494;-62
2021/09/13 00:50:36;;;;;;;2.85;1.10;;;21.80;80.50;;;;;;4174986;28;20131;-62
2021/09/13 00:52:59;;;;;;;1.80;0.95;;;21.80;80.40;;;;;;4184335;28;20147;-62
2021/09/13 00:55:22;;;;;;;2.63;1.13;;;21.80;80.50;;;;;;4165246;28;20069;-63
2021/09/13 00:57:46;;;;;;;3.15;1.23;;;21.80;80.40;;;;;;4158939;28;20458;-63
2021/09/13 01:00:10;;;;;;;2.05;0.95;;;21.80;80.50;;;;;;4175012;28;20418;-62
2021/09/13 01:02:33;;;;;;;2.83;1.10;;;21.80;80.50;;;;;;4178363;28;20059;-62
2021/09/13 01:04:56;;;;;;;3.05;1.05;;;21.80;81.30;;;;;;4171560;28;20053;-62
2021/09/13 01:07:18;;;;;;;2.60;0.90;;;21.80;80.50;;;;;;4157153;28;20049;-62
2021/09/13 01:09:40;;;;;;;4.43;1.38;;;21.80;80.50;;;;;;4158416;28;20052;-62
2021/09/13 01:12:03;;;;;;;3.65;1.05;;;21.80;80.50;;;;;;4157385;28;20053;-62
2021/09/13 01:14:35;;;;;;;2.92;1.00;;;21.80;80.50;;;;;;4157187;28;20049;-62
2021/09/13 01:16:57;;;;;;;3.35;1.15;;;21.80;80.40;;;;;;4178514;28;20052;-63
2021/09/13 01:19:20;;;;;;;4.55;1.10;;;21.80;80.50;;;;;;4190243;28;20052;-62
2021/09/13 01:21:44;;;;;;;1.45;1.08;;;21.80;80.40;;;;;;4191211;28;20040;-62
2021/09/13 01:24:09;;;;;;;2.92;1.00;;;21.80;80.40;;;;;;4189698;28;20514;-62
2021/09/13 01:26:32;;;;;;;6.18;1.77;;;21.70;80.50;;;;;;4173285;28;20053;-62
2021/09/13 01:28:54;;;;;;;3.47;1.30;;;21.70;80.50;;;;;;4189298;28;20388;-62
2021/09/13 01:31:24;;;;;;;4.05;1.75;;;21.80;80.60;;;;;;4172928;28;20090;-62
2021/09/13 01:33:46;;;;;;;3.42;1.15;;;21.70;80.50;;;;;;4175125;28;20544;-62
2021/09/13 01:36:17;;;;;;;2.00;1.02;;;21.70;81.30;;;;;;4189578;28;20076;-62
2021/09/13 01:38:39;;;;;;;2.88;1.13;;;21.80;80.40;;;;;;4189866;28;20057;-62
2021/09/13 01:41:06;;;;;;;2.45;1.00;;;21.80;80.30;;;;;;4183200;28;20102;-61
2021/09/13 01:43:28;;;;;;;3.40;1.60;;;21.70;80.10;;;;;;4172626;28;20446;-62
2021/09/13 01:45:51;;;;;;;3.78;1.63;;;21.70;80.20;;;;;;4173360;28;20052;-61
2021/09/13 01:48:13;;;;;;;2.35;1.05;;;21.80;80.20;;;;;;4174783;28;20069;-61
2021/09/13 01:50:36;;;;;;;3.45;1.02;;;21.70;80.00;;;;;;4186530;28;20090;-63
2021/09/13 01:52:58;;;;;;;4.20;1.25;;;21.70;80.10;;;;;;4179662;28;20049;-61
2021/09/13 01:55:20;;;;;;;4.57;1.20;;;21.70;80.10;;;;;;4188916;28;20059;-61
2021/09/13 01:57:43;;;;;;;5.75;1.40;;;21.70;80.00;;;;;;4189980;28;20055;-61
2021/09/13 02:00:08;;;;;;;3.20;1.20;;;21.70;80.00;;;;;;4189674;28;20655;-61
2021/09/13 02:02:38;;;;;;;6.18;1.20;;;21.70;79.90;;;;;;4189542;28;20525;-61
2021/09/13 02:05:02;;;;;;;3.08;1.25;;;21.80;79.80;;;;;;4182809;28;20097;-62
2021/09/13 02:07:24;;;;;;;5.30;1.30;;;21.70;79.70;;;;;;4174277;28;20561;-61
2021/09/13 02:09:52;;;;;;;4.57;1.42;;;21.70;79.70;;;;;;4172639;28;20491;-62
2021/09/13 02:12:14;;;;;;;4.10;0.95;;;21.70;79.80;;;;;;4172809;28;20049;-61
2021/09/13 02:14:38;;;;;;;2.47;0.90;;;21.70;79.90;;;;;;4185445;28;20055;-62
2021/09/13 02:17:00;;;;;;;3.45;1.30;;;21.70;79.90;;;;;;4183597;28;20055;-62
2021/09/13 02:19:22;;;;;;;5.60;1.80;;;21.70;80.00;;;;;;4172793;28;20052;-62
2021/09/13 02:21:44;;;;;;;4.72;1.17;;;21.70;80.00;;;;;;4172802;28;20052;-62
2021/09/13 02:24:07;;;;;;;4.78;1.27;;;21.70;79.90;;;;;;4158570;28;20053;-62
2021/09/13 02:26:29;;;;;;;4.40;1.30;;;21.70;79.80;;;;;;4174619;28;20056;-63
2021/09/13 02:28:51;;;;;;;2.90;1.02;;;21.70;79.70;;;;;;4174572;28;20582;-62
2021/09/13 02:31:15;;;;;;;3.97;1.33;;;21.70;79.70;;;;;;4189498;28;20048;-62
2021/09/13 02:33:37;;;;;;;4.72;1.42;;;21.70;79.60;;;;;;4190607;28;20048;-62
2021/09/13 02:36:00;;;;;;;4.00;1.17;;;21.70;79.80;;;;;;4187994;28;20234;-61
2021/09/13 02:38:23;;;;;;;2.35;1.27;;;21.70;79.70;;;;;;4188220;28;20044;-62
2021/09/13 02:40:45;;;;;;;3.33;1.00;;;21.70;79.70;;;;;;4187949;28;20552;-57
2021/09/13 02:43:09;;;;;;;1.40;1.00;;;21.70;79.80;;;;;;4187891;28;20095;-61
2021/09/13 02:45:30;;;;;;;5.22;1.50;;;21.70;79.90;;;;;;4189283;28;20490;-63
2021/09/13 02:47:54;;;;;;;3.80;1.52;;;21.70;79.80;;;;;;4178058;28;20071;-61
2021/09/13 02:50:17;;;;;;;4.13;1.20;;;21.70;79.60;;;;;;4172543;28;20049;-61
2021/09/13 02:52:40;;;;;;;3.05;1.23;;;21.70;79.80;;;;;;4174047;28;20561;-61
2021/09/13 02:55:03;;;;;;;3.25;0.95;;;21.70;79.80;;;;;;4173493;28;20053;-62
2021/09/13 02:57:25;;;;;;;3.13;1.10;;;21.60;79.80;;;;;;4193720;28;20048;-62
2021/09/13 02:59:48;;;;;;;4.82;1.65;;;21.60;79.80;;;;;;4174833;28;20049;-61
2021/09/13 03:02:10;;;;;;;3.58;1.55;;;21.60;79.80;;;;;;4176577;28;20053;-61
2021/09/13 03:04:34;;;;;;;4.22;1.30;;;21.60;79.60;;;;;;4175555;28;20055;-61
2021/09/13 03:06:57;;;;;;;3.17;1.13;;;21.60;79.60;;;;;;4175633;28;20052;-62
2021/09/13 03:09:19;;;;;;;5.20;1.55;;;21.60;79.80;;;;;;4178271;28;20053;-62
2021/09/13 03:11:41;;;;;;;3.17;1.20;;;21.60;79.80;;;;;;4187531;28;20041;-61
2021/09/13 03:14:03;;;;;;;4.25;1.48;;;21.60;79.80;;;;;;4185144;28;20075;-61
2021/09/13 03:16:26;;;;;;;3.95;1.08;;;21.60;79.80;;;;;;4191976;28;20102;-62
2021/09/13 03:18:49;;;;;;;4.90;1.80;;;21.60;79.80;;;;;;4191956;28;20048;-62
2021/09/13 03:21:13;;;;;;;4.18;1.48;;;21.60;79.80;;;;;;4175464;28;20506;-62
2021/09/13 03:23:35;;;;;;;3.30;1.50;;;21.60;79.80;;;;;;4190321;28;20493;-62
2021/09/13 03:25:57;;;;;;;5.68;1.35;;;21.60;80.70;;;;;;4183350;28;20553;-61
2021/09/13 03:28:23;;;;;;;5.07;1.27;;;21.60;80.30;;;;;;4191958;28;20130;-61
2021/09/13 03:30:45;;;;;;;2.63;1.10;;;21.60;79.80;;;;;;4190431;28;20138;-62
2021/09/13 03:33:08;;;;;;;4.30;1.40;;;21.60;79.70;;;;;;4191173;28;20498;-61
2021/09/13 03:35:31;;;;;;;2.38;1.50;;;21.60;79.80;;;;;;4190321;28;20090;-62
2021/09/13 03:37:57;;;;;;;3.95;1.67;;;21.60;79.70;;;;;;4189459;28;20526;-61
2021/09/13 03:40:18;;;;;;;3.45;1.05;;;21.60;79.60;;;;;;4192106;28;20109;-62
2021/09/13 03:42:42;;;;;;;3.78;1.63;;;21.60;79.70;;;;;;4173680;28;20136;-61
2021/09/13 03:45:06;;;;;;;3.00;1.55;;;21.60;79.60;;;;;;4174414;28;20047;-61
2021/09/13 03:48:07;;;;;;;3.80;1.65;;;21.60;79.70;;;;;;4149701;28;20188;-62
2021/09/13 03:50:33;;;;;;;2.85;1.50;;;21.60;80.00;;;;;;4126551;28;20428;-61
2021/09/13 03:52:57;;;;;;;4.65;1.40;;;21.60;79.90;;;;;;4150330;28;20044;-62
2021/09/13 03:55:19;;;;;;;4.40;1.20;;;21.60;79.80;;;;;;4174796;28;20135;-61
2021/09/13 03:57:41;;;;;;;4.45;1.50;;;21.60;80.70;;;;;;4158340;28;20144;-62
2021/09/13 04:00:05;;;;;;;1.52;1.00;;;21.50;79.70;;;;;;4163436;28;20049;-61
2021/09/13 04:02:34;;;;;;;3.35;1.40;;;21.50;79.80;;;;;;4176152;28;20052;-61
2021/09/13 04:04:56;;;;;;;3.28;1.00;;;21.60;79.90;;;;;;4176168;28;20441;-61
2021/09/13 04:07:22;;;;;;;2.63;1.30;;;21.50;80.60;;;;;;4190788;28;20052;-62
2021/09/13 04:10:21;;;;;;;3.28;1.23;;;21.50;80.60;;;;;;4174398;28;20057;-61
2021/09/13 04:13:06;;;;;;;2.53;1.20;;;21.50;79.70;;;;;;4174934;28;20049;-61
2021/09/13 04:16:00;;;;;;;2.30;1.02;;;21.50;79.80;;;;;;4149627;28;20963;-60
2021/09/13 04:18:51;;;;;;;2.78;1.10;;;21.50;79.90;;;;;;4172212;28;20645;-62
2021/09/13 04:21:35;;;;;;;3.30;1.48;;;21.50;80.00;;;;;;4189494;28;20052;-62
2021/09/13 04:24:16;;;;;;;2.00;0.93;;;21.50;79.90;;;;;;4186402;28;20048;-61
2021/09/13 04:26:59;;;;;;;2.85;1.00;;;21.50;80.00;;;;;;4174123;28;20057;-61
2021/09/13 04:29:47;;;;;;;3.40;0.93;;;21.50;79.80;;;;;;4181056;28;20052;-61
2021/09/13 04:32:28;;;;;;;2.97;1.23;;;21.50;80.00;;;;;;4191774;28;20086;-61
2021/09/13 04:35:10;;;;;;;5.15;1.88;;;21.50;80.00;;;;;;4192426;28;20048;-60
2021/09/13 04:38:08;;;;;;;3.38;1.40;;;21.50;80.00;;;;;;4156704;28;20041;-62
2021/09/13 04:40:49;;;;;;;2.50;0.95;;;21.50;80.10;;;;;;4172905;28;20052;-61
2021/09/13 04:43:38;;;;;;;1.80;1.30;;;21.50;80.00;;;;;;4162719;28;20045;-61
2021/09/13 04:46:23;;;;;;;4.38;1.48;;;21.50;80.00;;;;;;4173739;28;20044;-61
2021/09/13 04:49:06;;;;;;;2.92;1.50;;;21.50;80.30;;;;;;4175076;28;20491;-61
2021/09/13 04:51:54;;;;;;;4.57;1.40;;;21.40;80.00;;;;;;4165308;28;20056;-61
2021/09/13 04:54:34;;;;;;;3.50;1.50;;;21.40;80.00;;;;;;4188822;28;20538;-61
2021/09/13 04:56:57;;;;;;;4.22;1.52;;;21.50;80.10;;;;;;4190314;28;20423;-61
2021/09/13 04:59:20;;;;;;;3.58;1.50;;;21.40;79.90;;;;;;4175137;28;20048;-62
2021/09/13 05:01:42;;;;;;;6.03;1.27;;;21.50;79.80;;;;;;4162188;28;20045;-62
2021/09/13 05:04:06;;;;;;;3.72;1.75;;;21.40;79.90;;;;;;4173932;28;20126;-61
2021/09/13 05:06:28;;;;;;;2.88;1.48;;;21.40;79.90;;;;;;4173801;28;20065;-61
2021/09/13 05:08:51;;;;;;;5.22;1.63;;;21.40;79.70;;;;;;4174999;28;20048;-61
2021/09/13 05:11:16;;;;;;;5.03;1.50;;;21.40;79.70;;;;;;4173667;28;20053;-62
2021/09/13 05:13:38;;;;;;;2.92;1.52;;;21.40;79.70;;;;;;4173139;28;20049;-61
2021/09/13 05:16:03;;;;;;;4.75;1.52;;;21.40;79.70;;;;;;4185168;28;20059;-61
2021/09/13 05:18:30;;;;;;;3.97;1.60;;;21.40;79.60;;;;;;4172517;28;20063;-60
2021/09/13 05:20:53;;;;;;;1.88;1.30;;;21.40;79.80;;;;;;4173332;28;20095;-60
2021/09/13 05:23:20;;;;;;;1.80;1.40;;;21.40;80.00;;;;;;4156541;28;20057;-62
2021/09/13 05:25:43;;;;;;;3.00;1.50;;;21.40;80.10;;;;;;4156825;28;20053;-60
2021/09/13 05:28:05;;;;;;;4.18;1.73;;;21.50;80.00;;;;;;4163894;28;20041;-61
2021/09/13 05:30:27;;;;;;;3.33;1.60;;;21.50;79.50;;;;;;4172710;28;20114;-62
2021/09/13 05:32:51;;;;;;;3.13;1.48;;;21.50;79.50;;;;;;4159519;28;20049;-62
2021/09/13 05:35:13;;;;;;;2.13;1.20;;;21.50;79.10;;;;;;4161490;28;20077;-62
2021/09/13 05:37:35;;;;;;;3.08;1.45;;;21.50;79.30;;;;;;4186264;28;20052;-61
2021/09/13 05:39:58;;;;;;;2.40;1.35;;;21.50;79.20;;;;;;4172784;28;20060;-61
2021/09/13 05:42:21;;;;;;;1.60;1.23;;;21.50;79.30;;;;;;4189240;28;20043;-62
2021/09/13 05:44:45;;;;;;;2.92;1.30;;;21.40;79.30;;;;;;4191521;28;20055;-62
2021/09/13 05:47:08;;;;;;;4.15;1.30;;;21.40;79.40;;;;;;4191272;28;20068;-63
2021/09/13 05:49:32;;;;;;;2.63;1.48;;;21.40;79.60;;;;;;4187281;28;20048;-62
2021/09/13 05:51:54;;;;;;;3.42;1.30;;;21.40;79.50;;;;;;4173154;28;20044;-62
2021/09/13 05:54:45;;;;;;;5.93;1.35;;;21.40;79.60;;;;;;4175072;28;20458;-61
2021/09/13 05:57:08;;;;;;;4.05;1.30;;;21.40;79.90;;;;;;4189469;28;20052;-62
2021/09/13 05:59:30;;;;;;;4.32;1.40;;;21.40;80.70;;;;;;4189516;28;20053;-62
2021/09/13 06:01:56;;;;;;;3.13;1.10;;;21.40;79.80;;;;;;4172801;28;20049;-62
2021/09/13 06:04:19;;;;;;;2.00;1.08;;;21.40;79.80;;;;;;4172959;28;20641;-62
2021/09/13 06:06:43;;;;;;;2.55;1.20;;;21.40;80.30;;;;;;4173090;28;20962;-61
2021/09/13 06:09:05;;;;;;;1.85;1.35;;;21.40;80.50;;;;;;4201968;28;20044;-61
2021/09/13 06:11:28;;;;;;;1.33;1.02;;;21.30;80.60;;;;;;4173185;28;20136;-61
2021/09/13 06:13:50;;;;;;;2.53;1.33;;;21.30;80.70;;;;;;4173026;28;20067;-62
2021/09/13 06:16:12;;;;;;;2.70;1.70;;;21.30;80.70;;;;;;4172941;28;20053;-62
2021/09/13 06:18:40;;;;;;;1.90;1.60;;;21.30;80.20;;;;;;4172830;28;20478;-63
2021/09/13 06:21:03;;;;;;;7.20;1.50;;;21.30;79.90;;;;;;4189338;28;20064;-60
2021/09/13 06:23:26;;;;;;;2.65;1.38;;;21.40;79.90;;;;;;4190373;28;20049;-61
2021/09/13 06:25:48;;;;;;;2.97;1.27;;;21.40;79.60;;;;;;4188981;28;20573;-59
2021/09/13 06:28:11;;;;;;;4.47;1.20;;;21.40;80.30;;;;;;4188601;28;20510;-59
2021/09/13 06:30:33;;;;;;;3.03;1.20;;;21.40;79.30;;;;;;4183906;28;20132;-62
2021/09/13 06:32:59;;;;;;;4.50;1.20;;;21.40;79.10;;;;;;4176510;28;20056;-62
2021/09/13 06:35:23;;;;;;;5.32;2.75;;;21.40;79.10;;;;;;4190839;28;20112;-62
2021/09/13 06:37:54;;;;;;;2.90;2.15;;;21.40;78.90;;;;;;4178036;28;20056;-63
2021/09/13 06:40:18;;;;;;;3.67;2.28;;;21.40;79.80;;;;;;4176063;28;20049;-62
2021/09/13 06:42:40;;;;;;;4.50;2.22;;;21.40;79.90;;;;;;4178910;28;20048;-61
2021/09/13 06:45:08;;;;;;;5.22;1.77;;;21.40;80.80;;;;;;4177202;28;20045;-62
2021/09/13 06:47:44;;;;;;;6.32;2.40;;;21.40;80.10;;;;;;4162454;28;20461;-62
2021/09/13 06:50:06;;;;;;;6.45;2.25;;;21.40;80.10;;;;;;4160933;28;20132;-62
2021/09/13 06:52:29;;;;;;;3.60;1.60;;;21.40;80.00;;;;;;4175358;28;20049;-60
2021/09/13 06:54:51;;;;;;;6.07;2.15;;;21.40;80.00;;;;;;4176926;28;20045;-61
2021/09/13 06:57:15;;;;;;;4.03;1.58;;;21.40;79.90;;;;;;4176225;28;20083;-61
2021/09/13 06:59:37;;;;;;;3.55;1.60;;;21.40;79.90;;;;;;4193077;28;20426;-61
2021/09/13 07:01:59;;;;;;;3.83;1.50;;;21.40;80.00;;;;;;4193665;28;20497;-61
2021/09/13 07:04:23;;;;;;;2.17;1.60;;;21.40;79.80;;;;;;4193627;28;20106;-62
2021/09/13 07:06:46;;;;;;;2.42;1.40;;;21.40;79.60;;;;;;4193739;28;20036;-62
2021/09/13 07:09:08;;;;;;;1.67;1.45;;;21.40;79.50;;;;;;4193564;28;20473;-61
2021/09/13 07:11:31;;;;;;;1.95;1.52;;;21.40;79.70;;;;;;4192598;28;20545;-62
2021/09/13 07:13:55;;;;;;;3.78;1.40;;;21.40;80.30;;;;;;4176870;28;20053;-62
2021/09/13 07:16:20;;;;;;;6.00;1.73;;;21.40;80.00;;;;;;4177009;28;20049;-61
2021/09/13 07:18:42;;;;;;;4.40;1.90;;;21.40;79.90;;;;;;4176685;28;20049;-61
2021/09/13 07:21:04;;;;;;;1.52;1.25;;;21.40;80.00;;;;;;4176682;28;20072;-60
2021/09/13 07:23:27;;;;;;;3.88;1.85;;;21.40;80.00;;;;;;4191712;28;20056;-61
2021/09/13 07:25:49;;;;;;;3.00;1.80;;;21.40;80.20;;;;;;4188322;28;20482;-61
2021/09/13 07:28:13;;;;;;;3.28;1.80;;;21.40;79.90;;;;;;4192182;28;20067;-62
2021/09/13 07:30:36;;;;;;;5.00;2.30;;;21.40;80.00;;;;;;4192333;28;20044;-62
2021/09/13 07:32:59;;;;;;;2.83;2.30;;;21.40;79.80;;;;;;4191411;28;20056;-60
2021/09/13 07:35:21;;;;;;;5.30;2.08;;;21.40;78.60;;;;;;4192353;28;20106;-61
2021/09/13 07:37:43;;;;;;;3.20;2.03;;;21.40;78.60;;;;;;4192113;28;20041;-61
2021/09/13 07:40:07;;;;;;;2.25;1.63;;;21.40;78.70;;;;;;4192288;28;20044;-62
2021/09/13 07:42:29;;;;;;;5.80;1.63;;;21.40;79.00;;;;;;4192170;28;20078;-61
2021/09/13 07:44:52;;;;;;;8.68;1.83;;;21.40;78.90;;;;;;4193008;28;20048;-61
2021/09/13 07:47:15;;;;;;;2.92;1.23;;;21.40;78.80;;;;;;4192178;28;20064;-61
2021/09/13 07:49:37;;;;;;;2.55;1.50;;;21.40;79.00;;;;;;4193064;28;20052;-61
2021/09/13 07:51:59;;;;;;;2.85;1.30;;;21.40;77.90;;;;;;4192600;28;20049;-61
2021/09/13 07:54:22;;;;;;;1.70;1.30;;;21.40;77.80;;;;;;4192646;28;20056;-61
2021/09/13 07:56:44;;;;;;;2.28;1.40;;;21.40;76.80;;;;;;4192554;28;20059;-62
2021/09/13 07:59:06;;;;;;;4.22;1.58;;;21.30;76.60;;;;;;4175443;28;20076;-61
2021/09/13 08:01:29;;;;;;;5.47;2.30;;;21.40;76.70;;;;;;4178302;28;20052;-61
2021/09/13 08:03:52;;;;;;;3.75;1.83;;;21.40;77.30;;;;;;4176694;28;20053;-60
2021/09/13 08:06:14;;;;;;;6.15;2.50;;;21.40;77.10;;;;;;4182892;28;20087;-61
2021/09/13 08:08:37;;;;;;;2.90;1.00;;;21.40;76.80;;;;;;4192360;28;20110;-62
2021/09/13 08:10:59;;;;;;;2.83;1.27;;;21.40;77.80;;;;;;4192205;28;20060;-61
2021/09/13 08:13:21;;;;;;;5.10;2.03;;;21.40;77.50;;;;;;4192410;28;20048;-60
2021/09/13 08:15:46;;;;;;;2.40;1.10;;;21.40;76.60;;;;;;4192102;28;20048;-59
2021/09/13 08:18:09;;;;;;;2.95;1.20;;;21.40;75.60;;;;;;4181412;28;20055;-60
2021/09/13 08:20:34;;;;;;;4.47;1.52;;;21.40;75.70;;;;;;4177016;28;20078;-61
2021/09/13 08:22:58;;;;;;;2.90;1.00;;;21.40;75.60;;;;;;4190465;28;20482;-61
2021/09/13 08:25:20;;;;;;;2.53;1.00;;;21.40;76.00;;;;;;4191653;28;20385;-61
2021/09/13 08:27:53;;;;;;;2.15;1.00;;;21.40;75.90;;;;;;4190510;28;20056;-61
2021/09/13 08:30:15;;;;;;;4.10;2.50;;;21.40;76.00;;;;;;4192281;28;20139;-62
2021/09/13 08:32:37;;;;;;;5.35;2.42;;;21.40;75.80;;;;;;4190381;28;20131;-60
2021/09/13 08:35:00;;;;;;;5.95;1.83;;;21.40;76.30;;;;;;4191833;28;20533;-61
2021/09/13 08:37:24;;;;;;;1.02;0.85;;;21.40;76.40;;;;;;4175442;28;20068;-61
2021/09/13 08:39:46;;;;;;;4.97;1.55;;;21.40;76.50;;;;;;4175459;28;20419;-61
2021/09/13 08:42:08;;;;;;;3.13;1.10;;;21.50;76.20;;;;;;4175598;28;20063;-61
2021/09/13 08:44:33;;;;;;;1.13;0.90;;;21.50;76.50;;;;;;4178221;28;20098;-62
2021/09/13 08:47:01;;;;;;;2.35;0.98;;;21.50;77.40;;;;;;4175073;28;20041;-61
2021/09/13 08:49:31;;;;;;;2.00;1.00;;;21.50;75.60;;;;;;4175098;28;20048;-61
2021/09/13 08:51:54;;;;;;;4.45;1.20;;;21.50;72.10;;;;;;4167215;28;20063;-61
2021/09/13 08:54:17;;;;;;;2.15;1.10;;;21.50;72.50;;;;;;4175186;28;20049;-61
2021/09/13 08:56:41;;;;;;;1.63;0.65;;;21.50;72.10;;;;;;4175216;28;20132;-61
2021/09/13 08:59:04;;;;;;;0.82;0.82;;;21.50;72.30;;;;;;4175038;28;20151;-61
2021/09/13 09:01:28;;;;;;;3.47;0.80;;;21.50;71.50;;;;;;4175039;28;20695;-62
2021/09/13 09:03:51;;;;;;;2.35;1.02;;;21.50;72.40;;;;;;4176643;28;20044;-61
2021/09/13 09:06:33;;;;;;;3.10;0.82;;;21.40;71.80;;;;;;4177637;28;20037;-61
2021/09/13 09:09:00;;;;;;;2.78;0.90;;;21.40;72.90;;;;;;4191649;28;20534;-61
2021/09/13 09:11:23;;;;;;;2.70;1.10;;;21.40;73.20;;;;;;4191409;28;20137;-62
2021/09/13 09:13:46;;;;;;;3.05;1.10;;;21.40;73.80;;;;;;4191653;28;20131;-61
2021/09/13 09:16:10;;;;;;;2.92;1.00;;;21.40;74.00;;;;;;4189088;28;20071;-61
2021/09/13 09:18:40;;;;;;;1.17;0.77;;;21.40;73.40;;;;;;4175194;28;20047;-61
2021/09/13 09:21:02;;;;;;;2.55;1.20;;;21.40;73.90;;;;;;4190371;28;20052;-61
2021/09/13 09:23:24;;;;;;;1.60;0.73;;;21.40;74.60;;;;;;4191519;28;20051;-60
2021/09/13 09:25:47;;;;;;;2.30;0.85;;;21.40;74.50;;;;;;4191116;28;20056;-61
2021/09/13 09:28:15;;;;;;;1.85;0.57;;;21.40;74.10;;;;;;4186249;28;20045;-61
2021/09/13 09:30:38;;;;;;;1.15;0.60;;;21.40;73.00;;;;;;4174713;28;20041;-61
2021/09/13 09:33:09;;;;;;;1.70;0.57;;;21.40;72.50;;;;;;4173271;28;20064;-62
2021/09/13 09:35:50;;;;;;;1.42;0.98;;;21.40;71.90;;;;;;4169545;28;20483;-62
2021/09/13 09:38:31;;;;;;;2.83;0.70;;;21.40;74.10;;;;;;4158155;28;20052;-61
2021/09/13 09:41:00;;;;;;;1.73;0.85;;;21.40;74.90;;;;;;4158453;28;20045;-66
2021/09/13 09:43:23;;;;;;;2.95;0.63;;;21.40;75.20;;;;;;4165809;28;20147;-62
2021/09/13 09:45:45;;;;;;;0.50;0.50;;;21.40;74.60;;;;;;4174713;28;20056;-61
2021/09/13 09:48:09;;;;;;;1.42;0.60;;;21.40;74.40;;;;;;4174802;28;20044;-60
2021/09/13 09:50:33;;;;;;;1.55;0.70;;;21.40;74.50;;;;;;4182749;28;20048;-61
2021/09/13 09:52:55;;;;;;;1.98;0.80;;;21.40;73.80;;;;;;4191137;28;20096;-61
2021/09/13 09:55:20;;;;;;;2.13;0.50;;;21.50;73.80;;;;;;4191381;28;20110;-61
2021/09/13 09:57:43;;;;;;;1.73;0.50;;;21.50;73.30;;;;;;4190728;28;20132;-60
2021/09/13 10:00:25;;;;;;;1.45;0.40;;;21.50;73.20;;;;;;4189421;28;20075;-61
2021/09/13 10:02:47;;;;;;;1.50;0.60;;;21.50;72.20;;;;;;4189363;28;20143;-60
2021/09/13 10:05:09;;;;;;;2.47;0.60;;;21.50;70.70;;;;;;4190796;28;20052;-60
2021/09/13 10:07:36;;;;;;;0.93;0.60;;;21.50;70.60;;;;;;4189491;28;20066;-60
2021/09/13 10:09:59;;;;;;;1.35;0.70;;;21.50;70.80;;;;;;4175349;28;20056;-60
2021/09/13 10:12:21;;;;;;;0.90;0.65;;;21.50;69.90;;;;;;4190457;28;20044;-60
2021/09/13 10:14:43;;;;;;;2.50;1.50;;;21.50;70.10;;;;;;4191215;28;20131;-61
2021/09/13 10:17:08;;;;;;;2.72;0.73;;;21.50;71.20;;;;;;4190896;28;20044;-61
2021/09/13 10:19:45;;;;;;;2.10;0.80;;;21.50;71.10;;;;;;4190630;28;20102;-60
2021/09/13 10:22:08;;;;;;;2.08;0.60;;;21.50;71.80;;;;;;4190569;28;20683;-62
2021/09/13 10:24:31;;;;;;;1.35;0.55;;;21.50;71.50;;;;;;4190870;28;20040;-61
2021/09/13 10:26:56;;;;;;;0.80;0.60;;;21.50;71.00;;;;;;4186870;28;20135;-60
2021/09/13 10:29:23;;;;;;;2.38;0.85;;;21.50;70.00;;;;;;4176904;28;20049;-61
2021/09/13 10:31:59;;;;;;;1.42;0.57;;;21.60;71.20;;;;;;4173957;28;20566;-60
2021/09/13 10:34:25;;;;;;;1.23;0.68;;;21.60;71.20;;;;;;4174046;28;20048;-61
2021/09/13 10:37:09;;;;;;;0.47;0.45;;;21.60;71.80;;;;;;4174963;28;20471;-63
2021/09/13 10:39:53;;;;;;;1.05;0.50;;;21.60;70.00;;;;;;4173560;28;20045;-61
2021/09/13 10:42:28;;;;;;;1.52;0.77;;;21.60;67.90;;;;;;4190372;28;20446;-59
2021/09/13 10:45:07;;;;;;;0.80;0.60;;;21.60;70.70;;;;;;4190465;28;20566;-62
2021/09/13 10:47:30;;;;;;;1.55;0.55;;;21.60;69.50;;;;;;4173893;28;20045;-60
2021/09/13 10:50:19;;;;;;;1.02;0.60;;;21.60;71.00;;;;;;4174166;28;20487;-61
2021/09/13 10:52:41;;;;;;;1.38;0.45;;;21.60;70.00;;;;;;4173343;28;20045;-60
2021/09/13 10:55:24;;;;;;;1.27;0.40;;;21.70;71.20;;;;;;4174155;28;20049;-61
2021/09/13 10:57:58;;;;;;;2.45;0.60;;;21.70;69.90;;;;;;4189611;28;20101;-61
2021/09/13 11:00:54;;;;;;;0.20;0.20;;;21.70;68.90;;;;;;4190396;28;20047;-61
2021/09/13 11:03:53;;;;;;;1.15;0.63;;;21.70;69.70;;;;;;4174458;28;20052;-60
2021/09/13 11:06:40;;;;;;;1.20;0.65;;;21.70;67.40;;;;;;4182342;28;20045;-61
2021/09/13 11:09:06;;;;;;;1.85;0.30;;;21.70;68.60;;;;;;4183549;28;20053;-61
2021/09/13 11:11:31;;;;;;;0.25;0.20;;;21.80;69.70;;;;;;4173689;28;20586;-60
2021/09/13 11:13:58;;;;;;;2.13;0.55;;;21.80;70.80;;;;;;4173165;28;20499;-61
2021/09/13 11:16:20;;;;;;;0.40;0.30;;;21.80;70.50;;;;;;4174825;28;20757;-58
2021/09/13 11:18:45;;;;;;;0.50;0.50;;;21.90;70.40;;;;;;4176955;28;20056;-59
2021/09/13 11:21:15;;;;;;;1.30;0.30;;;22.00;69.00;;;;;;4176543;28;20045;-61
2021/09/13 11:23:39;;;;;;;1.60;0.80;;;22.00;67.00;;;;;;4160465;28;20056;-61
2021/09/13 11:26:02;;;;;;;1.75;0.47;;;22.10;70.40;;;;;;4167027;28;20053;-61
2021/09/13 11:28:24;;;;;;;1.60;0.55;;;22.10;70.10;;;;;;4160240;28;20458;-61
2021/09/13 11:30:46;;;;;;;1.50;0.80;;;22.10;68.80;;;;;;4169716;28;20045;-61
2021/09/13 11:33:10;;;;;;;2.92;0.70;;;22.10;65.90;;;;;;4180236;28;20131;-61
2021/09/13 11:35:33;;;;;;;1.38;0.50;;;22.20;66.60;;;;;;4176252;28;20060;-61
2021/09/13 11:37:59;;;;;;;1.65;0.40;;;22.20;67.20;;;;;;4192909;28;20067;-61
2021/09/13 11:40:38;;;;;;;0.35;0.30;;;22.30;63.50;;;;;;4176730;28;20514;-61
2021/09/13 11:43:09;;;;;;;2.22;0.65;;;22.30;63.30;;;;;;4193305;28;20060;-61
2021/09/13 11:45:31;;;;;;;2.08;0.50;;;22.30;61.50;;;;;;4192707;28;20056;-61
2021/09/13 11:47:55;;;;;;;1.30;0.40;;;22.30;62.50;;;;;;4193045;28;20048;-61
2021/09/13 11:50:21;;;;;;;1.23;0.43;;;22.30;64.20;;;;;;4193131;28;20107;-62
2021/09/13 11:52:43;;;;;;;2.55;0.70;;;22.30;65.00;;;;;;4192795;28;20137;-61
2021/09/13 11:55:07;;;;;;;1.05;0.50;;;22.30;63.60;;;;;;4191445;28;20123;-61
2021/09/13 11:57:36;;;;;;;1.35;0.50;;;22.20;60.60;;;;;;4192936;28;20117;-61
2021/09/13 12:00:00;;;;;;;1.35;0.30;;;22.20;62.50;;;;;;4192682;28;20517;-60
2021/09/13 12:02:33;;;;;;;3.20;0.40;;;22.20;62.30;;;;;;4192536;28;20045;-61
2021/09/13 12:04:56;;;;;;;0.57;0.43;;;22.20;63.90;;;;;;4176174;28;20060;-61
2021/09/13 12:07:19;;;;;;;2.15;0.47;;;22.20;63.20;;;;;;4175946;28;20107;-61
2021/09/13 12:09:43;;;;;;;0.55;0.50;;;22.20;64.10;;;;;;4175939;28;20048;-61
2021/09/13 12:12:06;;;;;;;0.35;0.28;;;22.20;64.50;;;;;;4183015;28;20048;-61
2021/09/13 12:14:31;;;;;;;1.80;0.57;;;22.20;65.30;;;;;;4191377;28;20118;-61
2021/09/13 12:17:09;;;;;;;1.60;0.45;;;22.20;64.90;;;;;;4192546;28;20044;-61
2021/09/13 12:19:31;;;;;;;1.15;0.60;;;22.20;65.70;;;;;;4192444;28;20124;-60
2021/09/13 12:22:00;;;;;;;1.25;0.38;;;22.20;66.20;;;;;;4192515;28;20052;-61
2021/09/13 12:24:33;;;;;;;0.93;0.50;;;22.20;65.60;;;;;;4192089;28;20506;-61
2021/09/13 12:26:56;;;;;;;0.30;0.30;;;22.20;66.70;;;;;;4179179;28;20057;-61
2021/09/13 12:29:18;;;;;;;0.43;0.30;;;22.20;65.40;;;;;;4189568;28;20450;-61
2021/09/13 12:31:41;;;;;;;2.15;0.50;;;22.20;65.70;;;;;;4175773;28;20785;-61
2021/09/13 12:34:05;;;;;;;2.75;0.60;;;22.20;65.30;;;;;;4168134;28;20152;-60
2021/09/13 12:36:27;;;;;;;1.73;0.77;;;22.20;64.60;;;;;;4175838;28;20067;-61
2021/09/13 12:38:51;;;;;;;1.23;0.60;;;22.20;64.30;;;;;;4175741;28;20065;-61
2021/09/13 12:41:13;;;;;;;0.43;0.40;;;22.20;65.50;;;;;;4175693;28;20545;-61